createdAt,value
2024-03-15T00:00:20.950Z,4.57
2024-03-15T00:02:48.161Z,4.00
2024-03-15T00:05:15.978Z,3.90
2024-03-15T00:07:43.246Z,4.07
2024-03-15T00:10:10.726Z,4.18
2024-03-15T00:12:38.064Z,4.85
2024-03-15T00:15:05.444Z,4.50
2024-03-15T00:17:33.186Z,4.30
2024-03-15T00:20:01.442Z,4.38
2024-03-15T00:22:28.655Z,4.75
2024-03-15T00:24:56.010Z,4.50
2024-03-15T00:27:23.203Z,4.20
2024-03-15T00:29:51.081Z,4.68
2024-03-15T00:32:18.232Z,4.43
2024-03-15T00:34:45.402Z,4.20
2024-03-15T00:37:12.526Z,4.30
2024-03-15T00:39:39.793Z,4.88
2024-03-15T00:42:07.098Z,4.70
2024-03-15T00:44:35.035Z,4.63
2024-03-15T00:47:02.207Z,4.70
2024-03-15T00:49:29.308Z,5.00
2024-03-15T00:51:56.412Z,5.30
2024-03-15T00:54:24.207Z,5.15
2024-03-15T00:56:51.326Z,5.20
2024-03-15T00:59:18.530Z,4.97
2024-03-15T01:01:45.755Z,5.43
2024-03-15T01:04:14.373Z,5.18
2024-03-15T01:06:41.843Z,5.45
2024-03-15T01:09:09.066Z,4.93
2024-03-15T01:11:36.250Z,4.60
2024-03-15T01:14:05.343Z,5.28
2024-03-15T01:16:32.474Z,5.57
2024-03-15T01:19:01.406Z,4.93
2024-03-15T01:21:28.764Z,5.10
2024-03-15T01:23:56.126Z,5.28
2024-03-15T01:26:23.434Z,5.20
2024-03-15T01:28:50.535Z,5.35
2024-03-15T01:31:19.116Z,5.53
2024-03-15T01:33:47.900Z,5.10
2024-03-15T01:36:16.402Z,5.05
2024-03-15T01:38:46.544Z,5.22
2024-03-15T01:41:14.578Z,5.53
2024-03-15T01:43:51.270Z,5.65
2024-03-15T01:46:18.623Z,5.65
2024-03-15T01:48:46.294Z,5.45
2024-03-15T01:51:14.826Z,5.97
2024-03-15T01:53:43.817Z,5.57
2024-03-15T01:56:11.148Z,5.55
2024-03-15T01:58:38.422Z,6.60
2024-03-15T02:01:07.521Z,5.53
2024-03-15T02:03:35.818Z,5.82
2024-03-15T02:06:03.054Z,6.43
2024-03-15T02:08:31.466Z,5.90
2024-03-15T02:11:02.152Z,5.88
2024-03-15T02:13:29.358Z,6.18
2024-03-15T02:15:59.113Z,5.85
2024-03-15T02:18:26.563Z,5.88
2024-03-15T02:20:53.774Z,6.07
2024-03-15T02:23:20.864Z,5.88
2024-03-15T02:25:48.181Z,6.35
2024-03-15T02:28:15.380Z,6.40
2024-03-15T02:30:42.817Z,5.57
2024-03-15T02:33:11.580Z,6.43
2024-03-15T02:35:38.867Z,6.18
2024-03-15T02:38:07.072Z,5.65
2024-03-15T02:40:34.243Z,6.20
2024-03-15T02:43:02.466Z,6.45
2024-03-15T02:45:29.727Z,6.03
2024-03-15T02:47:59.218Z,6.18
2024-03-15T02:50:26.520Z,6.38
2024-03-15T02:52:54.187Z,6.38
2024-03-15T02:55:21.575Z,6.10
2024-03-15T02:57:51.227Z,6.47
2024-03-15T03:00:18.561Z,6.38
2024-03-15T03:02:45.721Z,5.35
2024-03-15T03:05:13.465Z,6.60
2024-03-15T03:07:40.829Z,5.70
2024-03-15T03:10:08.724Z,5.95
2024-03-15T03:12:37.353Z,6.28
2024-03-15T03:15:05.194Z,6.68
2024-03-15T03:17:32.407Z,5.95
2024-03-15T03:20:00.650Z,6.68
2024-03-15T03:22:27.992Z,5.97
2024-03-15T03:24:59.856Z,5.55
2024-03-15T03:27:27.090Z,6.18
2024-03-15T03:29:54.439Z,6.72
2024-03-15T03:32:25.246Z,6.80
2024-03-15T03:34:55.396Z,6.25
2024-03-15T03:37:23.342Z,6.13
2024-03-15T03:39:52.920Z,6.07
2024-03-15T03:42:21.205Z,6.95
2024-03-15T03:44:48.564Z,6.63
2024-03-15T03:47:16.907Z,6.25
2024-03-15T03:49:44.195Z,5.85
2024-03-15T03:52:11.424Z,5.80
2024-03-15T03:54:38.652Z,6.72
2024-03-15T03:57:08.564Z,6.43
2024-03-15T03:59:36.961Z,6.45
2024-03-15T04:02:04.635Z,6.93
2024-03-15T04:04:34.540Z,6.18
2024-03-15T04:07:02.702Z,5.72
2024-03-15T04:09:29.906Z,5.82
2024-03-15T04:11:57.155Z,6.55
2024-03-15T04:14:24.369Z,6.22
2024-03-15T04:16:51.522Z,6.43
2024-03-15T04:19:18.660Z,6.05
2024-03-15T04:21:45.911Z,7.07
2024-03-15T04:24:14.705Z,6.22
2024-03-15T04:26:42.728Z,6.68
2024-03-15T04:29:09.918Z,6.80
2024-03-15T04:31:37.054Z,6.95
2024-03-15T04:34:04.728Z,6.45
2024-03-15T04:36:32.065Z,7.03
2024-03-15T04:39:00.409Z,5.97
2024-03-15T04:41:27.864Z,6.85
2024-03-15T04:43:54.962Z,6.50
2024-03-15T04:46:22.132Z,6.07
2024-03-15T04:48:49.389Z,6.18
2024-03-15T04:51:17.080Z,6.28
2024-03-15T04:53:44.500Z,6.63
2024-03-15T04:56:11.992Z,6.47
2024-03-15T04:58:39.160Z,6.50
2024-03-15T05:01:06.753Z,6.13
2024-03-15T05:03:34.256Z,7.30
2024-03-15T05:06:02.762Z,6.38
2024-03-15T05:08:33.219Z,6.78
2024-03-15T05:11:00.641Z,6.72
2024-03-15T05:13:27.950Z,6.43
2024-03-15T05:15:57.735Z,5.97
2024-03-15T05:18:25.001Z,6.95
2024-03-15T05:20:52.366Z,7.20
2024-03-15T05:23:19.566Z,7.97
2024-03-15T05:25:49.269Z,7.65
2024-03-15T05:28:20.408Z,6.82
2024-03-15T05:30:49.675Z,7.70
2024-03-15T05:33:17.248Z,8.73
2024-03-15T05:35:45.830Z,8.13
2024-03-15T05:38:15.689Z,8.82
2024-03-15T05:40:44.115Z,9.23
2024-03-15T05:43:16.213Z,8.82
2024-03-15T05:45:43.723Z,8.40
2024-03-15T05:48:13.330Z,8.93
2024-03-15T05:50:40.561Z,8.48
2024-03-15T05:53:07.807Z,9.18
2024-03-15T05:55:38.537Z,9.70
2024-03-15T05:58:06.716Z,8.68
2024-03-15T06:00:35.911Z,9.15
2024-03-15T06:03:06.744Z,8.93
2024-03-15T06:05:34.347Z,8.98
2024-03-15T06:08:01.570Z,9.52
2024-03-15T06:10:30.692Z,9.20
2024-03-15T06:12:58.184Z,8.65
2024-03-15T06:15:26.029Z,9.63
2024-03-15T06:17:53.287Z,9.00
2024-03-15T06:20:20.549Z,8.55
2024-03-15T06:22:47.722Z,8.45
2024-03-15T06:25:14.915Z,9.23
2024-03-15T06:27:42.340Z,9.60
2024-03-15T06:30:11.079Z,9.30
2024-03-15T06:32:39.882Z,8.95
2024-03-15T06:35:20.432Z,8.82
2024-03-15T06:37:49.592Z,10.20
2024-03-15T06:40:32.443Z,10.18
2024-03-15T06:43:03.310Z,10.18
2024-03-15T06:45:53.350Z,9.98
2024-03-15T06:48:33.990Z,10.80
2024-03-15T06:51:22.474Z,10.30
2024-03-15T06:53:49.715Z,9.50
2024-03-15T06:56:16.910Z,10.00
2024-03-15T06:58:44.313Z,9.65
2024-03-15T07:01:13.043Z,10.75
2024-03-15T07:03:40.370Z,9.50
2024-03-15T07:06:07.790Z,10.15
2024-03-15T07:08:35.031Z,9.32
2024-03-15T07:11:02.247Z,9.60
2024-03-15T07:13:31.275Z,9.88
2024-03-15T07:15:58.606Z,8.95
2024-03-15T07:18:26.026Z,8.98
2024-03-15T07:20:54.922Z,8.85
2024-03-15T07:23:23.156Z,8.77
2024-03-15T07:25:51.590Z,7.72
2024-03-15T07:28:22.688Z,9.00
2024-03-15T07:30:50.999Z,9.32
2024-03-15T07:33:19.054Z,8.05
2024-03-15T07:35:49.838Z,8.05
2024-03-15T07:38:18.509Z,9.57
2024-03-15T07:40:46.094Z,9.27
2024-03-15T07:43:13.349Z,8.65
2024-03-15T07:45:40.902Z,8.15
2024-03-15T07:48:08.592Z,8.18
2024-03-15T07:50:42.313Z,8.27
2024-03-15T07:53:15.337Z,7.97
2024-03-15T07:55:42.886Z,9.20
2024-03-15T07:58:11.504Z,8.23
2024-03-15T08:00:40.214Z,8.02
2024-03-15T08:03:07.650Z,8.38
2024-03-15T08:05:35.110Z,8.90
2024-03-15T08:08:04.927Z,7.95
2024-03-15T08:10:32.337Z,8.57
2024-03-15T08:12:59.676Z,8.38
2024-03-15T08:15:32.924Z,7.70
2024-03-15T08:18:00.849Z,7.30
2024-03-15T08:20:28.370Z,8.48
2024-03-15T08:22:58.617Z,7.43
2024-03-15T08:25:26.095Z,7.03
2024-03-15T08:30:25.624Z,7.07
2024-03-15T08:32:53.074Z,8.18
2024-03-15T08:35:20.359Z,7.65
2024-03-15T08:37:47.909Z,6.95
2024-03-15T08:40:16.474Z,7.95
2024-03-15T08:42:46.506Z,8.60
2024-03-15T08:45:15.367Z,8.55
2024-03-15T08:47:51.243Z,7.75
2024-03-15T08:50:40.590Z,7.22
2024-03-15T08:53:09.022Z,6.82
2024-03-15T08:55:36.344Z,6.95
2024-03-15T08:58:03.927Z,7.00
2024-03-15T09:00:31.260Z,6.53
2024-03-15T09:02:59.879Z,6.20
2024-03-15T09:05:27.110Z,6.35
2024-03-15T09:07:54.509Z,7.03
2024-03-15T09:10:23.819Z,6.82
2024-03-15T09:12:51.107Z,7.10
2024-03-15T09:15:23.323Z,6.63
2024-03-15T09:17:51.603Z,7.05
2024-03-15T09:20:28.905Z,6.20
2024-03-15T09:22:56.330Z,6.43
2024-03-15T09:25:24.738Z,6.60
2024-03-15T09:27:55.301Z,6.82
2024-03-15T09:30:28.082Z,6.95
2024-03-15T09:32:55.830Z,6.78
2024-03-15T09:35:23.357Z,7.28
2024-03-15T09:37:54.323Z,7.32
2024-03-15T09:40:24.617Z,8.15
2024-03-15T09:42:54.930Z,6.88
2024-03-15T09:45:23.088Z,7.32
2024-03-15T09:47:51.222Z,6.80
2024-03-15T09:50:22.627Z,7.95
2024-03-15T09:52:50.691Z,7.72
2024-03-15T09:55:18.367Z,7.45
2024-03-15T09:57:46.949Z,7.20
2024-03-15T10:00:17.393Z,6.75
2024-03-15T10:02:48.464Z,6.40
2024-03-15T10:05:16.047Z,6.75
2024-03-15T10:07:43.294Z,6.50
2024-03-15T10:10:14.377Z,6.28
2024-03-15T10:12:54.144Z,6.45
2024-03-15T10:15:24.808Z,5.72
2024-03-15T10:17:55.451Z,5.93
2024-03-15T10:20:24.204Z,6.75
2024-03-15T10:22:55.586Z,6.28
2024-03-15T10:25:25.913Z,6.88
2024-03-15T10:27:55.076Z,6.28
2024-03-15T10:30:26.095Z,5.55
2024-03-15T10:32:55.231Z,6.68
2024-03-15T10:35:23.529Z,5.60
2024-03-15T10:37:51.530Z,4.70
2024-03-15T10:40:22.911Z,5.50
2024-03-15T10:42:51.871Z,5.67
2024-03-15T10:45:20.690Z,5.40
2024-03-15T10:47:48.921Z,4.78
2024-03-15T10:50:17.195Z,5.70
2024-03-15T10:52:46.350Z,4.78
2024-03-15T10:55:19.761Z,4.53
2024-03-15T10:57:47.802Z,5.10
2024-03-15T11:00:19.937Z,4.93
2024-03-15T11:05:22.408Z,3.90
2024-03-15T11:07:51.870Z,4.25
2024-03-15T11:10:24.606Z,4.57
2024-03-15T11:12:54.659Z,4.38
2024-03-15T11:15:25.727Z,3.78
2024-03-15T11:18:00.251Z,4.05
2024-03-15T11:20:27.688Z,4.50
2024-03-15T11:22:57.765Z,3.83
2024-03-15T11:27:58.321Z,3.60
2024-03-15T11:30:29.299Z,3.50
2024-03-15T11:32:57.874Z,2.70
2024-03-15T11:35:27.553Z,3.70
2024-03-15T11:37:58.731Z,3.75
2024-03-15T11:40:26.081Z,4.35
2024-03-15T11:43:02.301Z,4.00
2024-03-15T11:45:36.295Z,3.20
2024-03-15T11:48:03.654Z,4.32
2024-03-15T11:50:30.814Z,3.65
2024-03-15T11:53:01.701Z,3.38
2024-03-15T11:55:28.871Z,3.25
2024-03-15T11:57:56.003Z,4.05
2024-03-15T12:00:25.168Z,3.80
2024-03-15T12:02:57.529Z,3.40
2024-03-15T12:05:24.705Z,3.97
2024-03-15T12:07:54.789Z,3.50
2024-03-15T12:10:22.537Z,3.78
2024-03-15T12:12:50.694Z,3.47
2024-03-15T12:15:30.687Z,3.40
2024-03-15T12:17:58.531Z,3.75
2024-03-15T12:20:26.741Z,3.25
2024-03-15T12:22:54.421Z,3.38
2024-03-15T12:25:21.557Z,3.92
2024-03-15T12:27:48.846Z,3.45
2024-03-15T12:30:18.018Z,3.03
2024-03-15T12:32:45.254Z,2.75
2024-03-15T12:35:12.482Z,3.20
2024-03-15T12:37:39.783Z,2.80
2024-03-15T12:40:10.521Z,2.83
2024-03-15T12:42:37.732Z,2.97
2024-03-15T12:45:05.126Z,2.30
2024-03-15T12:47:37.841Z,2.55
2024-03-15T12:50:10.410Z,2.58
2024-03-15T12:55:06.252Z,2.65
2024-03-15T12:57:33.493Z,3.22
2024-03-15T13:00:00.767Z,3.22
2024-03-15T13:02:28.122Z,2.97
2024-03-15T13:04:56.145Z,2.38
2024-03-15T13:07:23.433Z,2.83
2024-03-15T13:09:50.760Z,2.20
2024-03-15T13:12:17.987Z,2.58
2024-03-15T13:14:45.184Z,2.28
2024-03-15T13:17:12.354Z,2.35
2024-03-15T13:19:39.504Z,2.10
2024-03-15T13:22:06.730Z,2.05
2024-03-15T13:24:33.919Z,2.10
2024-03-15T13:27:01.149Z,2.38
2024-03-15T13:29:28.309Z,2.30
2024-03-15T13:31:55.497Z,2.28
2024-03-15T13:34:22.608Z,2.30
2024-03-15T13:36:50.496Z,3.05
2024-03-15T13:39:29.686Z,3.15
2024-03-15T13:41:59.282Z,2.80
2024-03-15T13:44:27.201Z,3.40
2024-03-15T13:46:59.695Z,3.25
2024-03-15T13:49:26.791Z,3.22
2024-03-15T13:51:55.046Z,2.95
2024-03-15T13:54:26.856Z,3.58
2024-03-15T13:56:54.442Z,2.42
2024-03-15T13:59:23.726Z,2.80
2024-03-15T14:01:52.197Z,3.75
2024-03-15T14:04:22.397Z,3.55
2024-03-15T14:06:49.874Z,3.83
2024-03-15T14:09:18.554Z,4.43
2024-03-15T14:11:47.972Z,4.78
2024-03-15T14:14:16.826Z,4.53
2024-03-15T14:16:47.718Z,5.55
2024-03-15T14:19:17.935Z,4.45
2024-03-15T14:21:45.176Z,5.50
2024-03-15T14:24:12.519Z,4.40
2024-03-15T14:26:39.627Z,4.38
2024-03-15T14:29:08.622Z,4.65
2024-03-15T14:31:35.783Z,4.50
2024-03-15T14:34:03.121Z,4.93
2024-03-15T14:36:32.336Z,4.40
2024-03-15T14:39:01.023Z,3.92
2024-03-15T14:41:28.475Z,4.18
2024-03-15T14:43:55.638Z,4.00
2024-03-15T14:46:22.798Z,4.00
2024-03-15T14:48:49.997Z,3.38
2024-03-15T14:51:17.687Z,3.33
2024-03-15T14:54:28.610Z,4.20
2024-03-15T14:56:55.782Z,3.60
2024-03-15T14:59:22.870Z,3.85
2024-03-15T15:01:50.401Z,2.92
2024-03-15T15:04:19.462Z,3.70
2024-03-15T15:06:47.527Z,3.55
2024-03-15T15:09:15.042Z,3.85
2024-03-15T15:11:42.367Z,4.07
2024-03-15T15:14:10.299Z,4.00
2024-03-15T15:16:37.758Z,4.00
2024-03-15T15:19:07.908Z,4.40
2024-03-15T15:21:35.291Z,4.60
2024-03-15T15:24:02.513Z,3.97
2024-03-15T15:26:29.625Z,4.40
2024-03-15T15:28:57.336Z,4.05
2024-03-15T15:31:26.153Z,4.78
2024-03-15T15:33:53.497Z,4.07
2024-03-15T15:36:20.915Z,3.75
2024-03-15T15:38:48.823Z,4.03
2024-03-15T15:41:16.154Z,4.30
2024-03-15T15:43:43.414Z,3.80
2024-03-15T15:46:12.444Z,4.47
2024-03-15T15:48:40.043Z,4.40
2024-03-15T15:51:11.922Z,5.05
2024-03-15T15:53:39.464Z,4.32
2024-03-15T15:56:08.496Z,4.03
2024-03-15T15:58:54.692Z,4.28
2024-03-15T16:01:22.004Z,4.03
2024-03-15T16:03:49.329Z,4.20
2024-03-15T16:06:16.644Z,3.90
2024-03-15T16:08:44.553Z,4.38
2024-03-15T16:11:20.960Z,4.25
2024-03-15T16:13:48.298Z,4.20
2024-03-15T16:16:15.503Z,4.32
2024-03-15T16:18:42.680Z,4.85
2024-03-15T16:21:10.902Z,5.00
2024-03-15T16:23:38.222Z,4.72
2024-03-15T16:26:05.476Z,4.35
2024-03-15T16:28:32.580Z,4.03
2024-03-15T16:31:02.820Z,4.43
2024-03-15T16:33:30.223Z,3.55
2024-03-15T16:35:57.448Z,3.97
2024-03-15T16:38:24.796Z,3.63
2024-03-15T16:40:52.222Z,3.78
2024-03-15T16:43:21.284Z,3.42
2024-03-15T16:45:48.930Z,3.47
2024-03-15T16:48:18.962Z,3.60
2024-03-15T16:50:46.619Z,3.15
2024-03-15T16:53:13.835Z,3.00
2024-03-15T16:55:43.294Z,2.28
2024-03-15T16:58:12.537Z,2.90
2024-03-15T17:00:39.831Z,2.70
2024-03-15T17:03:09.033Z,2.40
2024-03-15T17:05:38.716Z,3.10
2024-03-15T17:08:06.000Z,2.33
2024-03-15T17:10:33.309Z,2.65
2024-03-15T17:13:00.591Z,2.22
2024-03-15T17:15:28.191Z,2.83
2024-03-15T17:17:55.546Z,2.40
2024-03-15T17:20:22.928Z,2.80
2024-03-15T17:22:53.257Z,3.10
2024-03-15T17:25:20.450Z,2.60
2024-03-15T17:27:47.631Z,3.13
2024-03-15T17:30:16.036Z,3.10
2024-03-15T17:32:44.772Z,3.03
2024-03-15T17:35:12.311Z,2.88
2024-03-15T17:37:40.637Z,3.00
2024-03-15T17:40:13.215Z,3.22
2024-03-15T17:45:14.600Z,2.70
2024-03-15T17:47:43.204Z,2.55
2024-03-15T17:50:12.138Z,2.60
2024-03-15T17:52:39.817Z,2.55
2024-03-15T17:55:09.159Z,3.08
2024-03-15T17:57:37.523Z,2.70
2024-03-15T18:00:13.049Z,2.70
2024-03-15T18:02:48.723Z,2.58
2024-03-15T18:05:16.856Z,2.90
2024-03-15T18:07:44.324Z,3.10
2024-03-15T18:10:11.870Z,2.92
2024-03-15T18:12:39.932Z,2.58
2024-03-15T18:15:07.312Z,3.17
2024-03-15T18:17:34.686Z,2.70
2024-03-15T18:20:02.516Z,3.17
2024-03-15T18:22:29.930Z,2.60
2024-03-15T18:24:57.197Z,2.70
2024-03-15T18:27:25.033Z,3.40
2024-03-15T18:29:54.733Z,3.53
2024-03-15T18:32:21.909Z,3.15
2024-03-15T18:34:49.631Z,2.90
2024-03-15T18:37:17.039Z,3.20
2024-03-15T18:39:44.413Z,3.50
2024-03-15T18:42:11.764Z,2.92
2024-03-15T18:44:39.608Z,3.00
2024-03-15T18:47:06.858Z,3.55
2024-03-15T18:49:34.101Z,2.95
2024-03-15T18:52:03.168Z,2.90
2024-03-15T18:54:31.930Z,3.42
2024-03-15T18:56:59.132Z,3.38
2024-03-15T18:59:31.108Z,3.25
2024-03-15T19:02:02.552Z,2.95
2024-03-15T19:04:30.672Z,3.30
2024-03-15T19:06:58.935Z,2.97
2024-03-15T19:09:26.460Z,3.65
2024-03-15T19:11:53.679Z,3.60
2024-03-15T19:14:23.945Z,2.88
2024-03-15T19:16:53.881Z,3.53
2024-03-15T19:19:21.527Z,3.00
2024-03-15T19:21:50.864Z,3.10
2024-03-15T19:24:18.336Z,3.15
2024-03-15T19:26:47.036Z,2.75
2024-03-15T19:29:14.444Z,2.80
2024-03-15T19:31:41.576Z,3.40
2024-03-15T19:34:09.080Z,3.30
2024-03-15T19:36:36.459Z,3.33
2024-03-15T19:39:05.554Z,3.70
2024-03-15T19:41:32.786Z,4.00
2024-03-15T19:44:00.838Z,3.08
2024-03-15T19:46:28.113Z,3.42
2024-03-15T19:48:58.471Z,4.00
2024-03-15T19:51:26.393Z,3.20
2024-03-15T19:53:54.304Z,3.38
2024-03-15T19:56:21.813Z,3.47
2024-03-15T19:58:51.495Z,3.38
2024-03-15T20:01:20.829Z,3.15
2024-03-15T20:03:48.152Z,3.58
2024-03-15T20:06:17.485Z,4.07
2024-03-15T20:08:45.554Z,4.45
2024-03-15T20:11:16.298Z,3.47
2024-03-15T20:13:43.590Z,3.40
2024-03-15T20:16:12.961Z,4.57
2024-03-15T20:18:40.351Z,4.22
2024-03-15T20:21:07.658Z,3.70
2024-03-15T20:23:34.928Z,4.32
2024-03-15T20:26:02.125Z,4.72
2024-03-15T20:28:29.288Z,3.70
2024-03-15T20:30:59.660Z,3.83
2024-03-15T20:33:28.540Z,4.53
2024-03-15T20:35:57.033Z,4.30
2024-03-15T20:38:24.536Z,4.03
2024-03-15T20:40:51.746Z,4.40
2024-03-15T20:43:19.630Z,3.95
2024-03-15T20:45:53.684Z,4.05
2024-03-15T20:48:21.442Z,4.35
2024-03-15T20:50:54.363Z,4.25
2024-03-15T20:53:26.208Z,4.75
2024-03-15T20:55:55.750Z,4.88
2024-03-15T20:58:23.491Z,4.10
2024-03-15T21:00:50.961Z,5.13
2024-03-15T21:03:19.875Z,4.80
2024-03-15T21:05:47.845Z,5.07
2024-03-15T21:08:15.161Z,5.25
2024-03-15T21:10:42.469Z,5.45
2024-03-15T21:13:11.780Z,5.50
2024-03-15T21:15:40.277Z,5.55
2024-03-15T21:18:08.033Z,5.53
2024-03-15T21:20:36.229Z,6.10
2024-03-15T21:23:09.730Z,4.78
2024-03-15T21:25:40.141Z,5.85
2024-03-15T21:28:09.831Z,5.07
2024-03-15T21:30:38.886Z,5.10
2024-03-15T21:33:08.526Z,5.50
2024-03-15T21:35:37.945Z,5.47
2024-03-15T21:38:07.167Z,6.15
2024-03-15T21:40:37.365Z,6.25
2024-03-15T21:43:05.647Z,6.57
2024-03-15T21:45:34.896Z,7.00
2024-03-15T21:48:04.318Z,8.00
2024-03-15T21:50:31.598Z,8.15
2024-03-15T21:52:58.702Z,6.85
2024-03-15T21:55:25.925Z,6.82
2024-03-15T21:57:53.230Z,7.43
2024-03-15T22:00:27.356Z,7.88
2024-03-15T22:02:56.625Z,8.63
2024-03-15T22:05:24.075Z,6.97
2024-03-15T22:07:51.229Z,7.35
2024-03-15T22:10:18.455Z,6.15
2024-03-15T22:12:48.008Z,5.88
2024-03-15T22:15:17.358Z,6.43
2024-03-15T22:17:44.617Z,5.50
2024-03-15T22:20:12.985Z,5.45
2024-03-15T22:22:40.260Z,6.15
2024-03-15T22:25:19.666Z,5.10
2024-03-15T22:27:54.412Z,6.32
2024-03-15T22:30:23.010Z,6.28
2024-03-15T22:32:51.747Z,6.32
2024-03-15T22:35:20.314Z,5.60
2024-03-15T22:37:48.678Z,6.15
2024-03-15T22:40:17.673Z,5.95
2024-03-15T22:42:46.405Z,6.53
2024-03-15T22:45:14.332Z,6.75
2024-03-15T22:47:41.625Z,6.25
2024-03-15T22:50:09.261Z,6.78
2024-03-15T22:52:36.935Z,6.45
2024-03-15T22:55:04.366Z,6.25
2024-03-15T22:57:33.386Z,5.57
2024-03-15T23:00:00.677Z,5.45
2024-03-15T23:02:28.011Z,6.90
2024-03-15T23:04:55.379Z,5.50
2024-03-15T23:07:23.404Z,6.38
2024-03-15T23:09:51.504Z,6.03
2024-03-15T23:12:19.190Z,6.30
2024-03-15T23:14:50.025Z,7.57
2024-03-15T23:17:21.042Z,6.55
2024-03-15T23:19:50.506Z,7.72
2024-03-15T23:22:18.844Z,7.55
2024-03-15T23:24:51.681Z,7.10
2024-03-15T23:27:19.227Z,7.35
2024-03-15T23:29:46.878Z,7.32
2024-03-15T23:32:15.025Z,8.35
2024-03-15T23:34:44.512Z,6.63
2024-03-15T23:37:11.690Z,6.60
2024-03-15T23:39:38.961Z,7.65
2024-03-15T23:42:07.328Z,6.22
2024-03-15T23:44:37.507Z,6.85
2024-03-15T23:47:04.703Z,7.35
2024-03-15T23:49:31.839Z,6.28
2024-03-15T23:51:59.130Z,6.47
2024-03-15T23:54:26.413Z,8.23
2024-03-15T23:56:56.662Z,6.30
2024-03-15T23:59:23.997Z,6.78
